Time;durP1;ratioP1;P1;durP2;ratioP2;P2;SDS_P1;SDS_P2;PMS_P1;PMS_P2;Temp;Humidity;BMP_temperature;BMP_pressure;BME280_temperature;BME280_humidity;BME280_pressure;Samples;Min_cycle;Max_cycle;Signal;HPM_P1;HPM_P2
2023/08/04 05:22:19;;;;;;;;;;;;;;;6.73;100.00;99154.81;5051294;28;20013;-88
2023/08/04 05:24:47;;;;;;;;;;;;;;;6.80;100.00;99160.72;5052114;28;19979;-85
2023/08/04 05:27:12;;;;;;;;;;;;;;;6.25;100.00;99166.19;5036132;28;19917;-85
2023/08/04 05:29:37;;;;;;;;;;;;;;;6.31;100.00;99170.38;5036376;28;19917;-87
2023/08/04 05:32:02;;;;;;;;;;;;;;;6.58;100.00;99170.31;5054145;28;19975;-85
2023/08/04 05:34:28;;;;;;;;;;;;;;;6.34;100.00;99168.50;5035030;28;19959;-87
2023/08/04 05:36:53;;;;;;;;;;;;;;;6.54;100.00;99178.31;5053944;28;20371;-85
2023/08/04 05:39:18;;;;;;;;;;;;;;;6.54;100.00;99173.06;5036091;28;20267;-85
2023/08/04 05:41:45;;;;;;;;;;;;;;;6.57;100.00;99176.47;5036610;28;19963;-91
2023/08/04 05:44:10;;;;;;;;;;;;;;;6.68;100.00;99179.59;5053942;28;20017;-85
2023/08/04 05:46:35;;;;;;;;;;;;;;;6.74;100.00;99184.63;5053154;28;20396;-83
2023/08/04 05:49:01;;;;;;;;;;;;;;;6.76;100.00;99181.94;5034392;28;19932;-83
2023/08/04 05:51:26;;;;;;;;;;;;;;;6.75;100.00;99185.47;5035843;28;19923;-85
2023/08/04 05:53:51;;;;;;;;;;;;;;;7.02;100.00;99184.47;5035803;28;19968;-83
2023/08/04 05:56:16;;;;;;;;;;;;;;;6.86;100.00;99191.19;5052966;28;19917;-83
2023/08/04 05:58:42;;;;;;;;;;;;;;;7.20;100.00;99198.72;5053254;28;19917;-82
2023/08/04 06:01:07;;;;;;;;;;;;;;;7.51;100.00;99192.22;5053741;28;19939;-86
2023/08/04 06:03:32;;;;;;;;;;;;;;;7.72;100.00;99198.44;5053570;28;19924;-83
2023/08/04 06:05:58;;;;;;;;;;;;;;;7.61;100.00;99195.34;5052083;28;19982;-84
2023/08/04 06:08:23;;;;;;;;;;;;;;;7.86;100.00;99203.13;5035569;28;19925;-87
2023/08/04 06:10:49;;;;;;;;;;;;;;;7.53;100.00;99203.59;5053359;28;19931;-88
2023/08/04 06:13:14;;;;;;;;;;;;;;;7.18;100.00;99205.81;5052934;28;19916;-89
2023/08/04 06:15:39;;;;;;;;;;;;;;;7.20;100.00;99203.97;5035929;28;19921;-84
2023/08/04 06:18:05;;;;;;;;;;;;;;;6.92;100.00;99206.78;5053203;28;20299;-85
2023/08/04 06:20:30;;;;;;;;;;;;;;;6.71;100.00;99218.97;5033886;28;20022;-88
2023/08/04 06:22:55;;;;;;;;;;;;;;;6.82;100.00;99215.94;5035456;28;19917;-89
2023/08/04 06:25:20;;;;;;;;;;;;;;;6.67;100.00;99215.59;5035385;28;19974;-87
2023/08/04 06:27:46;;;;;;;;;;;;;;;6.71;100.00;99221.59;5035646;28;19916;-86
2023/08/04 06:30:11;;;;;;;;;;;;;;;7.09;100.00;99224.59;5035561;28;19921;-86
2023/08/04 06:32:36;;;;;;;;;;;;;;;6.86;100.00;99226.31;5052572;28;20363;-87
2023/08/04 06:35:01;;;;;;;;;;;;;;;7.03;100.00;99227.47;5050205;28;19921;-85
2023/08/04 06:37:27;;;;;;;;;;;;;;;6.90;100.00;99227.06;5052561;28;19920;-87
2023/08/04 06:39:52;;;;;;;;;;;;;;;6.87;100.00;99235.06;5052860;28;20007;-85
2023/08/04 06:42:18;;;;;;;;;;;;;;;6.78;100.00;99235.41;5034828;28;20356;-88
2023/08/04 06:44:43;;;;;;;;;;;;;;;6.66;100.00;99231.44;5035130;28;19963;-89
2023/08/04 06:47:09;;;;;;;;;;;;;;;6.74;100.00;99237.28;5051645;28;19936;-87
2023/08/04 06:49:35;;;;;;;;;;;;;;;6.98;100.00;99242.59;5050662;28;19956;-90
2023/08/04 06:52:00;;;;;;;;;;;;;;;6.80;100.00;99244.13;5035205;28;20383;-86
2023/08/04 07:45:38;;;;;;;;;;;;;;;6.47;100.00;99297.88;5748879;22;20486;-90
2023/08/04 07:48:03;;;;;;;;;;;;;;;6.25;100.00;99299.50;5042388;28;20012;-91
2023/08/04 07:50:28;;;;;;;;;;;;;;;6.36;100.00;99298.22;5043823;28;19953;-92
2023/08/04 07:52:54;;;;;;;;;;;;;;;6.57;100.00;99302.84;5044715;28;19923;-92
2023/08/04 07:55:19;;;;;;;;;;;;;;;6.25;100.00;99297.72;5044470;28;19925;-91
2023/08/04 07:57:44;;;;;;;;;;;;;;;6.11;100.00;99306.09;5043610;28;20007;-88
2023/08/04 08:00:10;;;;;;;;;;;;;;;6.10;100.00;99311.41;5044094;28;19916;-89
2023/08/04 08:02:35;;;;;;;;;;;;;;;6.00;100.00;99306.44;5045031;28;19924;-93
2023/08/04 08:05:01;;;;;;;;;;;;;;;6.46;100.00;99313.72;5044382;28;19943;-92
2023/08/04 08:07:26;;;;;;;;;;;;;;;6.26;100.00;99314.41;5044612;28;19993;-90
2023/08/04 08:09:51;;;;;;;;;;;;;;;6.14;100.00;99315.63;5043730;28;19932;-88
2023/08/04 08:12:16;;;;;;;;;;;;;;;6.05;100.00;99315.94;5025583;28;20287;-90
2023/08/04 08:14:41;;;;;;;;;;;;;;;6.14;100.00;99321.78;5042362;28;20034;-91
2023/08/04 08:17:07;;;;;;;;;;;;;;;6.11;100.00;99321.88;5042368;28;19979;-86
2023/08/04 08:19:32;;;;;;;;;;;;;;;6.35;100.00;99314.94;5042452;28;19916;-86
2023/08/04 08:21:58;;;;;;;;;;;;;;;6.36;100.00;99314.03;5043536;28;19924;-87
2023/08/04 08:24:23;;;;;;;;;;;;;;;6.11;100.00;99315.72;5024771;28;20394;-89
2023/08/04 08:26:48;;;;;;;;;;;;;;;6.49;100.00;99321.50;5043133;28;20542;-88
2023/08/04 08:29:13;;;;;;;;;;;;;;;6.55;100.00;99324.78;5023664;28;19939;-88
2023/08/04 08:31:39;;;;;;;;;;;;;;;6.51;100.00;99325.81;5023644;28;19921;-87
2023/08/04 08:34:04;;;;;;;;;;;;;;;6.56;100.00;99328.31;5042111;28;19918;-89
2023/08/04 08:36:30;;;;;;;;;;;;;;;6.27;100.00;99339.78;5041518;28;19990;-88
2023/08/04 08:38:55;;;;;;;;;;;;;;;6.25;100.00;99345.09;5042558;28;19917;-92
2023/08/04 08:41:22;;;;;;;;;;;;;;;6.55;100.00;99340.59;5043269;28;19917;-86
2023/08/04 08:43:48;;;;;;;;;;;;;;;6.39;100.00;99336.75;5042597;28;19924;-90
2023/08/04 08:46:13;;;;;;;;;;;;;;;6.18;100.00;99338.31;5040983;28;20364;-90
2023/08/04 08:48:42;;;;;;;;;;;;;;;6.46;100.00;99342.66;5042459;28;19923;-89
2023/08/04 08:51:07;;;;;;;;;;;;;;;6.44;100.00;99344.50;5024837;28;20280;-88
2023/08/04 08:53:33;;;;;;;;;;;;;;;6.24;100.00;99348.66;5043114;28;19917;-86
2023/08/04 08:55:59;;;;;;;;;;;;;;;6.27;100.00;99348.56;5024633;28;19917;-90
2023/08/04 08:58:26;;;;;;;;;;;;;;;6.32;100.00;99351.91;5027316;28;19917;-86
2023/08/04 09:00:51;;;;;;;;;;;;;;;6.14;100.00;99358.59;5028040;28;20019;-86
2023/08/04 09:03:17;;;;;;;;;;;;;;;6.11;100.00;99357.81;5028258;28;20007;-91
2023/08/04 09:05:42;;;;;;;;;;;;;;;6.28;100.00;99366.03;5028502;28;19921;-87
2023/08/04 09:08:10;;;;;;;;;;;;;;;6.17;100.00;99360.25;5046292;28;19916;-92
2023/08/04 09:10:37;;;;;;;;;;;;;;;6.06;100.00;99363.22;5046535;28;19944;-87
2023/08/04 09:13:07;;;;;;;;;;;;;;;6.00;100.00;99366.06;5028323;28;19962;-88
2023/08/04 09:15:35;;;;;;;;;;;;;;;5.96;100.00;99361.75;5027647;28;19924;-88
2023/08/04 09:18:05;;;;;;;;;;;;;;;6.00;100.00;99364.28;5027909;28;19918;-88
2023/08/04 09:20:30;;;;;;;;;;;;;;;6.09;100.00;99371.03;5027810;28;19975;-89
2023/08/04 09:22:56;;;;;;;;;;;;;;;6.01;100.00;99362.50;5027016;28;19925;-91
2023/08/04 09:25:21;;;;;;;;;;;;;;;6.03;100.00;99373.00;5028189;28;20391;-88
2023/08/04 09:27:50;;;;;;;;;;;;;;;6.06;100.00;99370.25;5045598;28;19924;-86
2023/08/04 09:30:16;;;;;;;;;;;;;;;6.49;100.00;99375.03;5044294;28;19963;-89
2023/08/04 09:32:42;;;;;;;;;;;;;;;6.69;100.00;99377.00;5045803;28;19968;-89
2023/08/04 09:35:08;;;;;;;;;;;;;;;6.72;100.00;99366.38;5027752;28;19975;-87
2023/08/04 09:37:34;;;;;;;;;;;;;;;6.54;100.00;99369.59;5028811;28;20275;-90
2023/08/04 09:40:01;;;;;;;;;;;;;;;6.67;100.00;99373.56;5044890;28;19921;-88
2023/08/04 09:42:26;;;;;;;;;;;;;;;6.55;100.00;99364.28;5027562;28;19921;-87
2023/08/04 09:44:52;;;;;;;;;;;;;;;6.71;100.00;99376.94;5026060;28;20015;-85
2023/08/04 09:47:21;;;;;;;;;;;;;;;6.90;100.00;99382.44;5026972;28;20338;-86
2023/08/04 09:49:46;;;;;;;;;;;;;;;6.89;100.00;99373.69;5043261;28;19928;-89
2023/08/04 09:52:18;;;;;;;;;;;;;;;7.20;100.00;99379.69;5044675;28;20003;-89
2023/08/04 09:54:43;;;;;;;;;;;;;;;7.10;100.00;99376.50;5027246;28;20032;-87
2023/08/04 09:57:08;;;;;;;;;;;;;;;6.92;100.00;99372.72;5026941;28;20029;-87
2023/08/04 09:59:34;;;;;;;;;;;;;;;6.64;100.00;99375.44;5044416;28;19967;-86
2023/08/04 10:01:59;;;;;;;;;;;;;;;6.44;100.00;99376.94;5044960;28;19928;-86
2023/08/04 10:04:24;;;;;;;;;;;;;;;6.62;100.00;99391.28;5027603;28;19971;-90
2023/08/04 10:06:50;;;;;;;;;;;;;;;7.00;100.00;99389.13;5045401;28;20307;-87
2023/08/04 10:09:15;;;;;;;;;;;;;;;6.64;100.00;99391.25;5024389;28;19920;-88
2023/08/04 10:11:41;;;;;;;;;;;;;;;6.41;100.00;99391.97;5043284;28;19917;-86
2023/08/04 10:14:08;;;;;;;;;;;;;;;6.40;100.00;99396.38;5040662;28;19952;-88
2023/08/04 10:16:35;;;;;;;;;;;;;;;6.56;100.00;99391.50;5024977;28;19985;-91
2023/08/04 10:19:01;;;;;;;;;;;;;;;6.31;100.00;99387.00;5026445;28;19928;-86
2023/08/04 10:21:34;;;;;;;;;;;;;;;6.33;100.00;99390.47;5042628;28;20062;-87
2023/08/04 10:24:01;;;;;;;;;;;;;;;6.21;100.00;99396.09;5042402;28;19921;-87
2023/08/04 10:26:26;;;;;;;;;;;;;;;6.14;100.00;99395.44;5042031;28;19921;-88
2023/08/04 10:28:59;;;;;;;;;;;;;;;6.25;100.00;99397.72;5036916;22;19933;-87
2023/08/04 10:31:39;;;;;;;;;;;;;;;6.35;100.00;99393.00;5055607;28;19959;-87
2023/08/04 10:34:41;;;;;;;;;;;;;;;6.28;100.00;99397.63;5058001;28;19917;-90
2023/08/04 10:37:14;;;;;;;;;;;;;;;6.30;100.00;99401.09;5033479;28;19917;-88
2023/08/04 10:39:44;;;;;;;;;;;;;;;6.10;100.00;99398.22;5042485;28;20498;-89
2023/08/04 10:42:12;;;;;;;;;;;;;;;6.10;100.00;99399.06;5056525;28;19978;-85
2023/08/04 10:44:53;;;;;;;;;;;;;;;6.35;100.00;99404.44;5043527;28;19955;-88
2023/08/04 10:47:44;;;;;;;;;;;;;;;6.18;100.00;99406.72;5056802;28;19917;-87
2023/08/04 10:50:09;;;;;;;;;;;;;;;6.21;100.00;99401.38;5046895;28;19927;-86
2023/08/04 10:52:35;;;;;;;;;;;;;;;6.03;100.00;99401.91;5058416;28;19917;-88
2023/08/04 10:55:02;;;;;;;;;;;;;;;6.09;100.00;99401.72;5041699;28;19923;-89
2023/08/04 10:57:28;;;;;;;;;;;;;;;6.07;100.00;99403.56;5042434;28;19917;-88
2023/08/04 10:59:54;;;;;;;;;;;;;;;6.09;100.00;99407.00;5048555;28;20009;-86
2023/08/04 11:02:20;;;;;;;;;;;;;;;6.05;100.00;99408.88;5036477;28;19921;-89
2023/08/04 11:04:47;;;;;;;;;;;;;;;6.07;100.00;99403.56;5054901;28;19918;-88
2023/08/04 11:07:13;;;;;;;;;;;;;;;5.97;100.00;99409.09;5055806;28;20249;-85
2023/08/04 11:09:38;;;;;;;;;;;;;;;6.10;100.00;99403.47;5038179;28;20424;-86
2023/08/04 11:12:06;;;;;;;;;;;;;;;5.99;100.00;99406.41;5052526;28;19913;-87
2023/08/04 11:14:31;;;;;;;;;;;;;;;5.93;100.00;99404.78;5053307;28;20311;-87
2023/08/04 11:17:00;;;;;;;;;;;;;;;6.02;100.00;99410.75;5040867;28;19913;-91
2023/08/04 11:19:26;;;;;;;;;;;;;;;5.97;100.00;99410.88;5050019;28;19921;-89
2023/08/04 11:21:51;;;;;;;;;;;;;;;5.95;100.00;99405.63;5051130;28;19921;-85
2023/08/04 11:24:21;;;;;;;;;;;;;;;6.09;100.00;99409.63;5051083;28;20273;-86
2023/08/04 11:26:46;;;;;;;;;;;;;;;6.57;100.00;99414.25;5055252;28;19970;-86
2023/08/04 11:29:12;;;;;;;;;;;;;;;6.14;100.00;99405.97;5050883;28;19968;-87
2023/08/04 11:31:37;;;;;;;;;;;;;;;5.93;100.00;99407.41;5056221;28;20318;-88
2023/08/04 11:34:02;;;;;;;;;;;;;;;6.04;100.00;99407.13;5047913;28;20379;-85
2023/08/04 11:36:28;;;;;;;;;;;;;;;6.01;100.00;99399.34;5042612;28;20275;-89
2023/08/04 11:38:53;;;;;;;;;;;;;;;6.15;100.00;99402.41;5035063;28;20260;-89
2023/08/04 11:41:21;;;;;;;;;;;;;;;6.16;100.00;99401.50;5051684;28;19923;-86
2023/08/04 11:43:46;;;;;;;;;;;;;;;6.07;100.00;99399.16;5060645;28;19917;-85
2023/08/04 11:46:11;;;;;;;;;;;;;;;6.21;100.00;99403.13;5039852;28;19917;-91
2023/08/04 11:48:38;;;;;;;;;;;;;;;6.08;100.00;99403.53;5049463;28;19990;-88
2023/08/04 11:51:05;;;;;;;;;;;;;;;6.23;100.00;99402.16;5053027;28;19924;-88
2023/08/04 11:53:30;;;;;;;;;;;;;;;6.87;100.00;99408.88;5050346;28;20040;-88
2023/08/04 11:55:56;;;;;;;;;;;;;;;7.22;100.00;99405.03;5034528;28;20371;-90
2023/08/04 11:58:32;;;;;;;;;;;;;;;6.62;100.00;99403.56;5033572;28;20332;-86
2023/08/04 12:00:57;;;;;;;;;;;;;;;6.44;100.00;99403.25;5049058;28;19917;-88
2023/08/04 12:03:50;;;;;;;;;;;;;;;6.58;100.00;99404.59;5033551;28;19925;-88
2023/08/04 12:06:16;;;;;;;;;;;;;;;6.08;100.00;99410.53;5042253;28;20006;-85
2023/08/04 12:08:48;;;;;;;;;;;;;;;6.26;100.00;99406.50;5052496;28;19923;-88
2023/08/04 12:11:13;;;;;;;;;;;;;;;6.14;100.00;99405.09;5041366;28;19939;-85
2023/08/04 12:13:40;;;;;;;;;;;;;;;9.38;100.00;99396.59;5032389;28;20451;-91
2023/08/04 12:16:05;;;;;;;;;;;;;;;7.18;100.00;99406.06;5049148;28;20448;-89
2023/08/04 12:18:30;;;;;;;;;;;;;;;6.67;100.00;99409.53;5033974;28;20024;-87
2023/08/04 12:20:59;;;;;;;;;;;;;;;6.94;100.00;99414.81;5041619;28;19921;-83
2023/08/04 12:23:24;;;;;;;;;;;;;;;7.50;100.00;99419.00;5055886;28;19920;-91
2023/08/04 12:25:50;;;;;;;;;;;;;;;7.85;100.00;99419.50;5042970;28;19967;-87
2023/08/04 12:28:15;;;;;;;;;;;;;;;8.10;100.00;99417.63;5048996;28;19917;-88
2023/08/04 12:30:41;;;;;;;;;;;;;;;8.48;100.00;99417.94;5044543;28;20024;-86
2023/08/04 12:33:06;;;;;;;;;;;;;;;8.24;100.00;99413.63;5061491;28;20341;-90
2023/08/04 12:35:31;;;;;;;;;;;;;;;7.54;100.00;99412.72;5064570;28;19916;-88
2023/08/04 12:37:57;;;;;;;;;;;;;;;7.20;100.00;99412.16;5044703;28;20460;-86
2023/08/04 12:40:22;;;;;;;;;;;;;;;7.08;100.00;99421.34;5057217;28;19917;-89
2023/08/04 12:42:48;;;;;;;;;;;;;;;6.96;100.00;99418.28;5035384;28;19927;-85
2023/08/04 12:45:13;;;;;;;;;;;;;;;7.54;100.00;99433.81;5041849;28;19924;-86
2023/08/04 12:47:38;;;;;;;;;;;;;;;8.19;100.00;99424.34;5045492;28;20514;-86
2023/08/04 12:50:04;;;;;;;;;;;;;;;8.03;100.00;99426.72;5065509;28;20391;-87
2023/08/04 12:52:29;;;;;;;;;;;;;;;8.12;100.00;99433.41;5054233;28;19925;-85
2023/08/04 12:54:54;;;;;;;;;;;;;;;8.45;100.00;99425.13;5027452;28;19916;-87
2023/08/04 12:57:20;;;;;;;;;;;;;;;7.74;100.00;99430.47;5042822;28;19960;-86
2023/08/04 12:59:45;;;;;;;;;;;;;;;7.55;100.00;99432.91;5052646;28;19921;-85
2023/08/04 13:02:10;;;;;;;;;;;;;;;7.08;100.00;99431.88;5055491;28;19921;-85
2023/08/04 13:04:36;;;;;;;;;;;;;;;7.19;100.00;99422.75;5064928;28;19967;-86
2023/08/04 13:07:01;;;;;;;;;;;;;;;7.33;100.00;99425.75;5060568;28;20418;-88
2023/08/04 13:09:26;;;;;;;;;;;;;;;7.88;100.00;99432.56;5055111;28;20488;-86
2023/08/04 13:11:52;;;;;;;;;;;;;;;8.07;100.00;99427.47;5060725;28;19921;-85
2023/08/04 13:14:17;;;;;;;;;;;;;;;8.41;100.00;99432.28;5042769;28;20295;-86
2023/08/04 13:16:42;;;;;;;;;;;;;;;8.31;100.00;99430.91;5059607;28;19963;-86
2023/08/04 13:19:07;;;;;;;;;;;;;;;7.94;100.00;99427.06;5044602;28;20454;-89
2023/08/04 13:21:33;;;;;;;;;;;;;;;7.55;100.00;99430.28;5044072;28;19956;-92
2023/08/04 13:23:59;;;;;;;;;;;;;;;7.36;100.00;99428.28;5041868;28;20375;-86
2023/08/04 13:26:24;;;;;;;;;;;;;;;6.87;100.00;99430.81;5042063;28;19971;-87
2023/08/04 13:28:50;;;;;;;;;;;;;;;6.81;100.00;99432.78;5044320;28;19921;-92
2023/08/04 13:31:15;;;;;;;;;;;;;;;7.32;100.00;99429.28;5061290;28;19916;-88
2023/08/04 13:33:40;;;;;;;;;;;;;;;7.15;100.00;99429.91;5065839;28;19923;-87
2023/08/04 13:36:05;;;;;;;;;;;;;;;6.67;100.00;99431.50;5058165;28;19917;-90
2023/08/04 13:38:31;;;;;;;;;;;;;;;6.52;100.00;99434.59;5034840;28;19920;-87
2023/08/04 13:40:56;;;;;;;;;;;;;;;6.93;100.00;99442.06;5043230;28;20316;-87
2023/08/04 13:43:21;;;;;;;;;;;;;;;6.55;100.00;99431.88;5045330;28;19920;-87
2023/08/04 13:45:46;;;;;;;;;;;;;;;6.50;100.00;99434.66;5061172;28;19917;-88
2023/08/04 13:48:12;;;;;;;;;;;;;;;6.71;100.00;99438.34;5059584;28;19921;-90
2023/08/04 13:50:37;;;;;;;;;;;;;;;6.55;100.00;99439.78;5045921;28;19970;-88
2023/08/04 13:53:02;;;;;;;;;;;;;;;6.88;100.00;99434.34;5048599;28;19935;-88
2023/08/04 13:55:28;;;;;;;;;;;;;;;7.34;100.00;99432.75;5046256;28;19917;-85
2023/08/04 13:57:53;;;;;;;;;;;;;;;7.74;100.00;99439.22;5045762;28;19966;-87
2023/08/04 14:00:18;;;;;;;;;;;;;;;7.96;100.00;99441.94;5037967;28;19920;-87
2023/08/04 14:02:44;;;;;;;;;;;;;;;7.96;100.00;99444.56;5045226;28;19928;-87
2023/08/04 14:05:09;;;;;;;;;;;;;;;8.25;100.00;99445.25;5058988;28;19928;-86
2023/08/04 14:07:37;;;;;;;;;;;;;;;7.96;100.00;99447.22;5058946;28;19923;-88
2023/08/04 14:10:03;;;;;;;;;;;;;;;8.01;100.00;99441.75;5056340;28;19963;-88
2023/08/04 14:12:31;;;;;;;;;;;;;;;7.82;100.00;99439.78;5058574;28;20356;-87
2023/08/04 14:14:56;;;;;;;;;;;;;;;8.16;100.00;99448.22;5061422;28;20425;-85
2023/08/04 14:17:21;;;;;;;;;;;;;;;8.28;100.00;99453.03;5046414;28;19920;-88
2023/08/04 14:19:47;;;;;;;;;;;;;;;8.69;100.00;99447.91;5063747;28;19924;-86
2023/08/04 14:22:12;;;;;;;;;;;;;;;8.59;100.00;99453.63;5046877;28;19995;-86
2023/08/04 14:24:37;;;;;;;;;;;;;;;8.23;100.00;99462.03;5066601;28;20027;-86
2023/08/04 14:27:04;;;;;;;;;;;;;;;7.77;100.00;99457.56;5057853;28;20380;-87
2023/08/04 14:29:29;;;;;;;;;;;;;;;7.72;100.00;99453.38;5058944;28;19974;-86
2023/08/04 14:31:54;;;;;;;;;;;;;;;7.64;100.00;99448.38;5044938;28;20386;-87
2023/08/04 14:34:20;;;;;;;;;;;;;;;7.36;100.00;99452.00;5063403;28;19958;-86
2023/08/04 14:36:45;;;;;;;;;;;;;;;7.07;100.00;99445.97;5045775;28;20470;-88
2023/08/04 14:39:10;;;;;;;;;;;;;;;6.81;100.00;99453.88;5057000;28;20390;-86
2023/08/04 14:41:36;;;;;;;;;;;;;;;6.82;100.00;99451.19;5036822;28;19920;-87
2023/08/04 14:44:01;;;;;;;;;;;;;;;6.71;100.00;99454.16;5039731;28;20284;-88
2023/08/04 14:46:26;;;;;;;;;;;;;;;6.86;100.00;99455.44;5043255;28;19921;-86
2023/08/04 14:48:51;;;;;;;;;;;;;;;6.60;100.00;99450.16;5037056;28;20015;-87
2023/08/04 14:51:17;;;;;;;;;;;;;;;6.42;100.00;99448.97;5058113;28;20039;-87
2023/08/04 14:53:42;;;;;;;;;;;;;;;6.94;100.00;99449.06;5045718;28;19916;-86
2023/08/04 14:56:07;;;;;;;;;;;;;;;7.18;100.00;99455.25;5043574;28;19920;-86
2023/08/04 14:58:32;;;;;;;;;;;;;;;6.81;100.00;99453.88;5067168;28;19923;-88
2023/08/04 15:01:05;;;;;;;;;;;;;;;6.63;100.00;99450.91;5066394;28;20007;-87
2023/08/04 15:03:31;;;;;;;;;;;;;;;6.57;100.00;99451.09;5055594;28;20295;-87
2023/08/04 15:05:57;;;;;;;;;;;;;;;6.55;100.00;99447.66;5043354;28;19917;-85
2023/08/04 15:08:22;;;;;;;;;;;;;;;6.73;100.00;99446.22;5050958;28;19924;-86
2023/08/04 15:10:47;;;;;;;;;;;;;;;7.16;100.00;99449.19;5063108;28;19927;-86
2023/08/04 15:13:12;;;;;;;;;;;;;;;7.62;100.00;99445.78;5044867;28;20003;-87
2023/08/04 15:15:37;;;;;;;;;;;;;;;8.17;100.00;99453.44;5037197;28;19967;-88
2023/08/04 15:18:03;;;;;;;;;;;;;;;8.14;100.00;99452.72;5055927;28;19917;-87
2023/08/04 15:20:28;;;;;;;;;;;;;;;8.38;100.00;99458.81;5055544;28;20367;-86
2023/08/04 15:22:53;;;;;;;;;;;;;;;8.02;100.00;99454.00;5044619;28;20376;-86
2023/08/04 15:25:19;;;;;;;;;;;;;;;7.55;100.00;99454.00;5044583;28;20027;-87
2023/08/04 15:27:44;;;;;;;;;;;;;;;7.90;100.00;99446.59;5061780;28;20252;-86
2023/08/04 15:30:10;;;;;;;;;;;;;;;8.34;100.00;99446.63;5028940;28;19929;-87
2023/08/04 15:32:36;;;;;;;;;;;;;;;8.32;100.00;99448.50;5043139;28;20012;-86
2023/08/04 15:35:01;;;;;;;;;;;;;;;8.36;100.00;99460.66;5025005;28;19985;-90
2023/08/04 15:37:27;;;;;;;;;;;;;;;8.65;100.00;99450.75;5026725;28;19956;-87
2023/08/04 15:39:53;;;;;;;;;;;;;;;8.07;100.00;99445.94;5025049;28;19964;-85
2023/08/04 15:42:18;;;;;;;;;;;;;;;7.16;100.00;99450.03;5025776;28;19952;-85
2023/08/04 15:44:43;;;;;;;;;;;;;;;7.00;100.00;99444.44;5040992;28;19994;-85
2023/08/04 15:47:09;;;;;;;;;;;;;;;6.88;100.00;99444.88;5024668;28;19921;-86
2023/08/04 15:49:34;;;;;;;;;;;;;;;6.73;100.00;99451.47;5042585;28;19921;-84
2023/08/04 15:51:59;;;;;;;;;;;;;;;6.71;100.00;99454.16;5043500;28;19913;-86
2023/08/04 15:54:24;;;;;;;;;;;;;;;7.11;100.00;99451.97;5025215;28;20503;-85
2023/08/04 15:56:50;;;;;;;;;;;;;;;6.88;100.00;99450.97;5042812;28;20295;-87
2023/08/04 15:59:15;;;;;;;;;;;;;;;6.75;100.00;99452.31;5043063;28;20391;-85
2023/08/04 16:02:21;;;;;;;;;;;;;;;6.53;100.00;99450.34;5017608;28;20387;-91
2023/08/04 16:04:47;;;;;;;;;;;;;;;6.48;100.00;99448.78;5023246;28;19917;-84
2023/08/04 16:07:12;;;;;;;;;;;;;;;6.45;100.00;99441.00;5024484;28;19920;-86
2023/08/04 16:12:49;;;;;;;;;;;;;;;6.39;100.00;99455.19;5027677;28;19924;-86
2023/08/04 16:15:15;;;;;;;;;;;;;;;6.35;100.00;99456.19;5023275;28;19921;-85
2023/08/04 16:17:40;;;;;;;;;;;;;;;6.39;100.00;99462.22;5042409;28;20307;-85
2023/08/04 16:20:06;;;;;;;;;;;;;;;6.40;100.00;99462.19;5041973;28;19917;-86
2023/08/04 16:22:31;;;;;;;;;;;;;;;6.25;100.00;99460.84;5025466;28;19924;-85
2023/08/04 16:24:56;;;;;;;;;;;;;;;6.34;100.00;99472.91;5025649;28;20435;-85
2023/08/04 16:30:20;;;;;;;;;;;;;;;6.31;100.00;99475.63;5296211;22;19925;-85
2023/08/04 16:33:21;;;;;;;;;;;;;;;6.39;100.00;99472.75;5034052;28;20561;-86
2023/08/04 16:35:47;;;;;;;;;;;;;;;6.36;100.00;99478.97;4991034;28;19922;-89
2023/08/04 16:38:13;;;;;;;;;;;;;;;6.37;100.00;99480.69;5021239;28;19917;-87
2023/08/04 16:40:39;;;;;;;;;;;;;;;6.27;100.00;99488.00;5051004;28;20035;-86
2023/08/04 16:43:04;;;;;;;;;;;;;;;6.14;100.00;99494.53;5050902;28;20062;-90
2023/08/04 16:45:31;;;;;;;;;;;;;;;6.21;100.00;99500.47;5048844;28;19971;-86
2023/08/04 16:47:56;;;;;;;;;;;;;;;6.24;100.00;99495.09;5050015;28;19921;-86
2023/08/04 16:50:21;;;;;;;;;;;;;;;6.21;100.00;99490.81;5050886;28;19920;-91
2023/08/04 16:52:49;;;;;;;;;;;;;;;6.21;100.00;99498.72;5283511;22;19907;-85
2023/08/04 16:55:14;;;;;;;;;;;;;;;6.20;100.00;99504.88;5033113;28;19988;-83
2023/08/04 16:57:39;;;;;;;;;;;;;;;6.44;100.00;99507.69;5049066;28;20024;-88
2023/08/04 17:00:05;;;;;;;;;;;;;;;6.35;100.00;99512.31;5047873;28;20399;-89
2023/08/04 17:02:36;;;;;;;;;;;;;;;6.27;100.00;99511.69;5033592;28;19935;-91
2023/08/04 17:05:01;;;;;;;;;;;;;;;6.55;100.00;99510.84;5043398;28;19920;-85
2023/08/04 17:07:27;;;;;;;;;;;;;;;6.31;100.00;99507.19;5050813;28;19943;-85
2023/08/04 17:09:56;;;;;;;;;;;;;;;6.25;100.00;99510.84;5032840;28;20004;-86
2023/08/04 17:12:21;;;;;;;;;;;;;;;6.18;100.00;99510.19;5031253;28;20462;-88
2023/08/04 17:14:49;;;;;;;;;;;;;;;6.22;100.00;99513.56;5046880;28;20007;-84
2023/08/04 17:17:14;;;;;;;;;;;;;;;6.18;100.00;99525.09;5039370;28;19921;-85
2023/08/04 17:19:42;;;;;;;;;;;;;;;6.12;100.00;99530.53;5048475;28;19921;-85
2023/08/04 17:24:57;;;;;;;;;;;;;;;6.29;100.00;99519.53;5094089;22;19925;-85
2023/08/04 17:27:23;;;;;;;;;;;;;;;6.30;100.00;99526.50;5035934;28;20016;-89
2023/08/04 17:29:48;;;;;;;;;;;;;;;6.28;100.00;99529.19;5034036;28;19953;-90
2023/08/04 17:32:13;;;;;;;;;;;;;;;6.25;100.00;99534.53;5049443;28;19924;-85
2023/08/04 17:34:38;;;;;;;;;;;;;;;6.31;100.00;99529.09;5035116;28;20843;-90
2023/08/04 17:37:06;;;;;;;;;;;;;;;6.19;100.00;99534.75;5031082;28;20012;-88
2023/08/04 17:39:43;;;;;;;;;;;;;;;6.26;100.00;99536.28;5035748;28;19921;-90
2023/08/04 17:42:09;;;;;;;;;;;;;;;6.20;100.00;99535.59;5052148;28;19977;-85
2023/08/04 17:44:34;;;;;;;;;;;;;;;6.22;100.00;99539.88;5052145;28;19925;-88
2023/08/04 17:46:59;;;;;;;;;;;;;;;6.24;100.00;99538.09;5035355;28;20482;-89
2023/08/04 17:49:25;;;;;;;;;;;;;;;6.30;100.00;99532.66;5055175;28;20292;-84
2023/08/04 17:51:50;;;;;;;;;;;;;;;6.18;100.00;99541.75;5053152;28;20351;-85
2023/08/04 17:54:15;;;;;;;;;;;;;;;6.18;100.00;99533.00;5052188;28;19920;-85
2023/08/04 17:56:40;;;;;;;;;;;;;;;6.12;100.00;99541.06;5053690;28;20383;-90
2023/08/04 17:59:06;;;;;;;;;;;;;;;6.16;100.00;99546.19;5052964;28;20487;-85
2023/08/04 18:01:31;;;;;;;;;;;;;;;9.50;100.00;99540.63;5052517;28;19921;-82
2023/08/04 18:03:56;;;;;;;;;;;;;;;6.99;100.00;99541.94;5052847;28;19924;-83
2023/08/04 18:06:22;;;;;;;;;;;;;;;6.53;100.00;99541.63;5052737;28;20315;-85
2023/08/04 18:08:47;;;;;;;;;;;;;;;6.46;100.00;99545.34;5050909;28;19951;-84
2023/08/04 18:11:12;;;;;;;;;;;;;;;6.34;100.00;99544.78;5052325;28;19925;-84
2023/08/04 18:13:39;;;;;;;;;;;;;;;6.31;100.00;99550.16;5053818;28;20015;-84
2023/08/04 18:16:04;;;;;;;;;;;;;;;6.22;100.00;99539.88;5052253;28;19920;-83
2023/08/04 18:18:29;;;;;;;;;;;;;;;6.20;100.00;99541.72;5052765;28;19963;-85
2023/08/04 18:20:58;;;;;;;;;;;;;;;6.18;100.00;99543.53;5053853;28;19923;-82
2023/08/04 18:23:23;;;;;;;;;;;;;;;6.21;100.00;99546.06;5053472;28;19952;-85
2023/08/04 18:25:53;;;;;;;;;;;;;;;6.26;100.00;99546.78;5052398;28;19982;-85
2023/08/04 18:28:18;;;;;;;;;;;;;;;6.11;100.00;99548.09;5033509;28;20369;-83
2023/08/04 18:30:50;;;;;;;;;;;;;;;6.15;100.00;99548.88;5050138;28;21730;-82
2023/08/04 18:33:17;;;;;;;;;;;;;;;6.19;100.00;99555.78;5053526;28;19928;-85
2023/08/04 18:35:42;;;;;;;;;;;;;;;6.12;100.00;99556.84;5050855;28;19966;-84
2023/08/04 18:38:26;;;;;;;;;;;;;;;6.15;100.00;99560.25;5033220;28;19960;-87
2023/08/04 18:40:51;;;;;;;;;;;;;;;6.22;100.00;99558.31;5051964;28;20455;-84
2023/08/04 18:43:16;;;;;;;;;;;;;;;6.16;100.00;99556.72;5033436;28;19921;-85
2023/08/04 18:45:54;;;;;;;;;;;;;;;6.08;100.00;99557.84;5049853;28;19921;-87
2023/08/04 18:48:19;;;;;;;;;;;;;;;6.14;100.00;99563.81;5034658;28;19920;-85
2023/08/04 18:50:44;;;;;;;;;;;;;;;6.14;100.00;99557.66;5051240;28;20388;-82
2023/08/04 18:53:10;;;;;;;;;;;;;;;6.10;100.00;99561.31;5052343;28;19924;-83
2023/08/04 18:55:36;;;;;;;;;;;;;;;6.09;100.00;99570.09;5050268;28;20344;-82
2023/08/04 18:58:01;;;;;;;;;;;;;;;5.98;100.00;99568.63;5051493;28;19943;-84
2023/08/04 19:00:27;;;;;;;;;;;;;;;6.02;100.00;99568.56;5049853;28;20387;-83
2023/08/04 19:02:52;;;;;;;;;;;;;;;6.10;100.00;99562.16;5050513;28;19920;-84
2023/08/04 19:05:17;;;;;;;;;;;;;;;6.10;100.00;99569.19;5051760;28;19925;-82